CheckWX is a tool to help pilots better visualize weather data.  It is not intended as a substitute for an official pre-flight weather briefing.

14:13:53 UTC

KDAA METAR
Davison AAF Airport
Fort Belvoir, Virginia, USA
Current

18 mins ago

KDAA 221356Z AUTO 33008G16KT 10SM FEW041 16/08 A3015 RMK AO2 SLP213 T01600075
Observed
Apr-22 @ 13:56 UTC
Wind
  • 330° at 8 KTS
  • Gusting to 16 KTS
Visibility
10 SM
Flight Rules
VFR
Cloud Levels
  • Few at 4,100' AGL
Temperature
16°C / 61°F
Dewpoint
C / 46°F
Humidity
59%
Altimeter
30.15" Hg
Pressure
1021.02 hPa
Previous

1 hour ago

KDAA 221256Z AUTO 32012G17KT 10SM FEW090 14/07 A3014 RMK AO2 SLP209 T01420068
Observed
Apr-22 @ 12:56 UTC
Wind
  • 320° at 12 KTS
  • Gusting to 17 KTS
Visibility
10 SM
Flight Rules
VFR
Cloud Levels
  • Few at 9,000' AGL
Temperature
14°C / 57°F
Dewpoint
C / 45°F
Humidity
63%
Altimeter
30.14" Hg
Pressure
1020.62 hPa
Previous

2 hours ago

KDAA 221156Z AUTO 32007KT 10SM OVC080 13/06 A3014 RMK AO2 SLP209 T01270061 10147 20124 52017
Observed
Apr-22 @ 11:56 UTC
Wind
  • 320° at 7 KTS
Visibility
10 SM
Flight Rules
VFR
Cloud Levels
  • Overcast at 8,000' AGL
Temperature
13°C / 55°F
Dewpoint
C / 43°F
Humidity
63%
Altimeter
30.14" Hg
Pressure
1020.62 hPa